Time;durP1;ratioP1;P1;durP2;ratioP2;P2;SDS_P1;SDS_P2;PMS_P1;PMS_P2;Temp;Humidity;BMP_temperature;BMP_pressure;BME280_temperature;BME280_humidity;BME280_pressure;Samples;Min_cycle;Max_cycle;Signal;HPM_P1;HPM_P2
2022/04/24 00:01:06;;;;;;;0.30;0.30;;;;;;;;;;1857571;76;26265;-49
2022/04/24 00:03:33;;;;;;;0.30;0.30;;;;;;;;;;1858044;77;26335;-48
2022/04/24 00:06:01;;;;;;;0.37;0.37;;;;;;;;;;1823542;78;26332;-51
2022/04/24 00:08:28;;;;;;;0.30;0.30;;;;;;;;;;1813245;78;26338;-50
2022/04/24 00:10:56;;;;;;;0.40;0.40;;;;;;;;;;1810031;78;26817;-50
2022/04/24 00:13:23;;;;;;;0.30;0.30;;;;;;;;;;1808430;79;26353;-57
2022/04/24 00:15:51;;;;;;;0.25;0.25;;;;;;;;;;1806508;78;25811;-51
2022/04/24 00:18:18;;;;;;;0.40;0.40;;;;;;;;;;1803089;79;26361;-51
2022/04/24 00:20:46;;;;;;;0.30;0.30;;;;;;;;;;1812224;78;26232;-52
2022/04/24 00:23:13;;;;;;;0.47;0.47;;;;;;;;;;1808553;79;26287;-51
2022/04/24 00:25:40;;;;;;;0.30;0.30;;;;;;;;;;1808558;79;26291;-50
2022/04/24 00:28:07;;;;;;;0.30;0.30;;;;;;;;;;1785222;79;26336;-54
2022/04/24 00:30:35;;;;;;;0.30;0.30;;;;;;;;;;1810533;77;27372;-47
2022/04/24 00:33:02;;;;;;;0.70;0.60;;;;;;;;;;1803853;79;26777;-51
2022/04/24 00:35:31;;;;;;;0.30;0.30;;;;;;;;;;1800468;78;26345;-50
2022/04/24 00:37:58;;;;;;;0.30;0.30;;;;;;;;;;1779759;79;26986;-53
2022/04/24 00:40:26;;;;;;;0.40;0.40;;;;;;;;;;1773726;81;26376;-52
2022/04/24 00:42:53;;;;;;;0.40;0.40;;;;;;;;;;1800810;78;26222;-52
2022/04/24 00:45:20;;;;;;;0.33;0.33;;;;;;;;;;1819459;78;26272;-48
2022/04/24 00:47:48;;;;;;;0.50;0.50;;;;;;;;;;1802659;79;26712;-51
2022/04/24 00:50:16;;;;;;;0.30;0.30;;;;;;;;;;1796358;78;26295;-49
2022/04/24 00:52:44;;;;;;;0.50;0.50;;;;;;;;;;1802836;79;26777;-48
2022/04/24 00:55:11;;;;;;;0.50;0.50;;;;;;;;;;1802501;79;26275;-50
2022/04/24 00:57:40;;;;;;;0.50;0.50;;;;;;;;;;1802497;79;26519;-52
2022/04/24 01:00:08;;;;;;;0.37;0.37;;;;;;;;;;1802754;79;26350;-52
2022/04/24 01:02:37;;;;;;;0.37;0.37;;;;;;;;;;1792319;79;26299;-49
2022/04/24 01:05:04;;;;;;;0.50;0.50;;;;;;;;;;1863605;76;26869;-50
2022/04/24 01:07:32;;;;;;;0.40;0.40;;;;;;;;;;1853316;76;26651;-57
2022/04/24 01:10:00;;;;;;;0.50;0.50;;;;;;;;;;1832583;77;26326;-56
2022/04/24 01:12:27;;;;;;;0.50;0.50;;;;;;;;;;1819361;77;26833;-54
2022/04/24 01:14:54;;;;;;;0.50;0.50;;;;;;;;;;1820795;76;26711;-55
2022/04/24 01:17:21;;;;;;;0.47;0.47;;;;;;;;;;1880176;76;26777;-51
2022/04/24 01:19:50;;;;;;;0.40;0.40;;;;;;;;;;1857542;76;27360;-51
2022/04/24 01:22:18;;;;;;;0.47;0.47;;;;;;;;;;1849126;77;26257;-50
2022/04/24 01:24:46;;;;;;;0.40;0.40;;;;;;;;;;1849262;77;26344;-51
2022/04/24 01:27:13;;;;;;;0.40;0.40;;;;;;;;;;1846342;76;26276;-52
2022/04/24 01:29:40;;;;;;;0.50;0.50;;;;;;;;;;1832203;77;26587;-48
2022/04/24 01:32:08;;;;;;;0.40;0.40;;;;;;;;;;1848031;76;26250;-58
2022/04/24 01:34:36;;;;;;;0.33;0.33;;;;;;;;;;1850441;76;26757;-52
2022/04/24 01:37:03;;;;;;;0.40;0.40;;;;;;;;;;1853235;77;26773;-56
2022/04/24 01:39:30;;;;;;;0.50;0.50;;;;;;;;;;1853172;76;26257;-56
2022/04/24 01:41:57;;;;;;;0.40;0.40;;;;;;;;;;1846148;77;26323;-50
2022/04/24 01:44:25;;;;;;;0.60;0.60;;;;;;;;;;1855237;77;26250;-55
2022/04/24 01:46:52;;;;;;;0.42;0.42;;;;;;;;;;1840039;76;26319;-50
2022/04/24 01:49:19;;;;;;;0.50;0.50;;;;;;;;;;1845178;76;26267;-49
2022/04/24 01:51:48;;;;;;;0.55;0.55;;;;;;;;;;1853423;77;26662;-54
2022/04/24 01:54:15;;;;;;;0.50;0.50;;;;;;;;;;1853541;77;26328;-50
2022/04/24 01:56:43;;;;;;;0.50;0.50;;;;;;;;;;1853395;77;26344;-54
2022/04/24 01:59:10;;;;;;;0.50;0.50;;;;;;;;;;1853460;77;26695;-56
2022/04/24 02:01:37;;;;;;;0.57;0.57;;;;;;;;;;1870721;76;26274;-57
2022/04/24 02:04:05;;;;;;;0.50;0.50;;;;;;;;;;1871022;76;26293;-57
2022/04/24 02:06:32;;;;;;;0.50;0.50;;;;;;;;;;1852165;76;26245;-49
2022/04/24 02:08:59;;;;;;;0.55;0.55;;;;;;;;;;1854526;77;26190;-50
2022/04/24 02:11:28;;;;;;;0.47;0.47;;;;;;;;;;1855048;77;26253;-51
2022/04/24 02:13:55;;;;;;;0.40;0.40;;;;;;;;;;1860947;76;26255;-47
2022/04/24 02:16:22;;;;;;;0.40;0.40;;;;;;;;;;1856267;76;26294;-58
2022/04/24 02:18:50;;;;;;;0.50;0.50;;;;;;;;;;1824272;77;26252;-52
2022/04/24 02:21:17;;;;;;;0.40;0.40;;;;;;;;;;1846457;77;26222;-48
2022/04/24 02:23:44;;;;;;;0.45;0.45;;;;;;;;;;1849659;76;26787;-55
2022/04/24 02:26:12;;;;;;;0.57;0.57;;;;;;;;;;1852753;77;26757;-55
2022/04/24 02:28:39;;;;;;;0.50;0.50;;;;;;;;;;1846022;77;26625;-49
2022/04/24 02:31:07;;;;;;;0.60;0.60;;;;;;;;;;1843192;77;26292;-51
2022/04/24 02:33:34;;;;;;;0.50;0.50;;;;;;;;;;1824221;78;26285;-48
2022/04/24 02:36:01;;;;;;;0.50;0.50;;;;;;;;;;1828681;76;26321;-52
2022/04/24 02:38:29;;;;;;;0.50;0.50;;;;;;;;;;1825840;78;26242;-51
2022/04/24 02:40:56;;;;;;;0.57;0.57;;;;;;;;;;1840906;76;26325;-52
2022/04/24 02:43:23;;;;;;;0.40;0.40;;;;;;;;;;1848412;76;26299;-51
2022/04/24 02:45:51;;;;;;;0.40;0.40;;;;;;;;;;1835700;76;26263;-52
2022/04/24 02:48:18;;;;;;;0.40;0.40;;;;;;;;;;1874960;76;26267;-50
2022/04/24 02:50:45;;;;;;;0.40;0.40;;;;;;;;;;1848258;76;26304;-54
2022/04/24 02:53:12;;;;;;;0.50;0.50;;;;;;;;;;1848931;77;26265;-53
2022/04/24 02:55:40;;;;;;;0.40;0.40;;;;;;;;;;1848971;77;26265;-52
2022/04/24 02:58:07;;;;;;;0.50;0.50;;;;;;;;;;1855421;76;26285;-52
2022/04/24 03:00:43;;;;;;;0.40;0.40;;;;;;;;;;1846438;77;26305;-48
2022/04/24 03:03:10;;;;;;;0.40;0.40;;;;;;;;;;1838269;76;26746;-57
2022/04/24 03:05:38;;;;;;;0.40;0.40;;;;;;;;;;1848784;77;26694;-51
2022/04/24 03:08:05;;;;;;;0.50;0.50;;;;;;;;;;1823279;77;26413;-57
2022/04/24 03:10:33;;;;;;;1.22;0.47;;;;;;;;;;1853477;76;26351;-49
2022/04/24 03:13:00;;;;;;;0.47;0.47;;;;;;;;;;1848843;77;26246;-47
2022/04/24 03:15:27;;;;;;;0.40;0.40;;;;;;;;;;1848988;76;26359;-49
2022/04/24 03:17:55;;;;;;;0.40;0.40;;;;;;;;;;1848988;77;26335;-51
2022/04/24 03:20:22;;;;;;;0.50;0.50;;;;;;;;;;1842737;76;26261;-55
2022/04/24 03:22:53;;;;;;;0.30;0.30;;;;;;;;;;1846300;77;26285;-51
2022/04/24 03:25:20;;;;;;;0.30;0.30;;;;;;;;;;1855308;77;26288;-52
2022/04/24 03:27:47;;;;;;;0.40;0.40;;;;;;;;;;1851124;77;26277;-51
2022/04/24 03:30:15;;;;;;;0.50;0.50;;;;;;;;;;1849022;76;26277;-54
2022/04/24 03:32:42;;;;;;;0.50;0.50;;;;;;;;;;1871410;76;26777;-49
2022/04/24 03:35:11;;;;;;;0.50;0.50;;;;;;;;;;1888834;75;26616;-48
2022/04/24 03:37:38;;;;;;;0.40;0.40;;;;;;;;;;1893119;76;26246;-53
2022/04/24 03:40:06;;;;;;;0.40;0.40;;;;;;;;;;1849977;76;26272;-51
2022/04/24 03:42:33;;;;;;;0.40;0.40;;;;;;;;;;1856514;76;26823;-59
2022/04/24 03:45:04;;;;;;;1.12;0.47;;;;;;;;;;1856858;76;26258;-51
2022/04/24 03:47:31;;;;;;;0.40;0.40;;;;;;;;;;1857711;77;26394;-58
2022/04/24 03:49:59;;;;;;;0.40;0.40;;;;;;;;;;1857268;76;26297;-57
2022/04/24 03:52:26;;;;;;;0.40;0.40;;;;;;;;;;1856943;77;26356;-57
2022/04/24 03:54:54;;;;;;;0.40;0.40;;;;;;;;;;1856892;76;26705;-55
2022/04/24 03:57:21;;;;;;;0.47;0.47;;;;;;;;;;1852739;77;26265;-47
2022/04/24 03:59:48;;;;;;;0.40;0.40;;;;;;;;;;1857546;76;26253;-55
2022/04/24 04:02:16;;;;;;;0.47;0.47;;;;;;;;;;1854771;77;26261;-50
2022/04/24 04:04:44;;;;;;;0.42;0.42;;;;;;;;;;1856768;77;26213;-50
2022/04/24 04:07:11;;;;;;;0.55;0.50;;;;;;;;;;1855570;76;26311;-52
2022/04/24 04:09:38;;;;;;;0.37;0.37;;;;;;;;;;1854858;76;26280;-59
2022/04/24 04:12:06;;;;;;;0.40;0.40;;;;;;;;;;1856081;76;26697;-58
2022/04/24 04:14:34;;;;;;;0.40;0.40;;;;;;;;;;1855171;76;26269;-54
2022/04/24 04:17:01;;;;;;;0.40;0.40;;;;;;;;;;1853498;76;26209;-49
2022/04/24 04:19:29;;;;;;;0.40;0.40;;;;;;;;;;1855954;76;26438;-58
2022/04/24 04:21:56;;;;;;;0.47;0.47;;;;;;;;;;1852924;76;26303;-55
2022/04/24 04:24:23;;;;;;;0.40;0.40;;;;;;;;;;1856476;77;26535;-52
2022/04/24 04:26:51;;;;;;;0.25;0.25;;;;;;;;;;1856274;77;26261;-51
2022/04/24 04:29:18;;;;;;;0.30;0.30;;;;;;;;;;1858559;76;26269;-54
2022/04/24 04:31:45;;;;;;;0.45;0.45;;;;;;;;;;1852617;76;26264;-56
2022/04/24 04:34:12;;;;;;;0.30;0.30;;;;;;;;;;1856214;77;26269;-49
2022/04/24 04:36:40;;;;;;;0.30;0.30;;;;;;;;;;1856505;76;26293;-55
2022/04/24 04:39:07;;;;;;;0.37;0.37;;;;;;;;;;1855045;76;26309;-59
2022/04/24 04:41:34;;;;;;;0.37;0.37;;;;;;;;;;1855441;76;26250;-50
2022/04/24 04:44:02;;;;;;;0.50;0.50;;;;;;;;;;1855974;76;26297;-52
2022/04/24 04:46:29;;;;;;;0.30;0.30;;;;;;;;;;1855139;76;26949;-49
2022/04/24 04:48:56;;;;;;;0.40;0.40;;;;;;;;;;1856087;76;26760;-54
2022/04/24 04:51:23;;;;;;;0.40;0.40;;;;;;;;;;1855965;76;26658;-47
2022/04/24 04:53:54;;;;;;;0.20;0.20;;;;;;;;;;1856011;76;26947;-55
2022/04/24 04:56:20;;;;;;;0.42;0.40;;;;;;;;;;1852852;76;26284;-54
2022/04/24 04:58:47;;;;;;;0.30;0.30;;;;;;;;;;1854815;76;26399;-56
2022/04/24 05:01:14;;;;;;;0.30;0.30;;;;;;;;;;1855563;76;26767;-55
2022/04/24 05:03:42;;;;;;;1.35;0.45;;;;;;;;;;1855716;76;26373;-53
2022/04/24 05:06:09;;;;;;;0.40;0.40;;;;;;;;;;1855671;76;26258;-56
2022/04/24 05:08:37;;;;;;;0.30;0.30;;;;;;;;;;1853929;76;25624;-51
2022/04/24 05:11:04;;;;;;;0.40;0.40;;;;;;;;;;1854501;76;26944;-54
2022/04/24 05:13:31;;;;;;;0.30;0.30;;;;;;;;;;1855681;76;26717;-58
2022/04/24 05:15:58;;;;;;;0.40;0.40;;;;;;;;;;1856077;76;26678;-50
2022/04/24 05:18:26;;;;;;;0.40;0.40;;;;;;;;;;1855971;76;26741;-53
2022/04/24 05:20:53;;;;;;;0.20;0.20;;;;;;;;;;1853503;76;26261;-52
2022/04/24 05:23:20;;;;;;;0.20;0.20;;;;;;;;;;1856322;76;26217;-49
2022/04/24 05:25:48;;;;;;;0.30;0.30;;;;;;;;;;1856442;76;26301;-55
2022/04/24 05:28:15;;;;;;;0.40;0.40;;;;;;;;;;1856236;76;26367;-54
2022/04/24 05:30:43;;;;;;;0.30;0.30;;;;;;;;;;1854186;76;26286;-55
2022/04/24 05:33:12;;;;;;;0.25;0.25;;;;;;;;;;1856084;76;26798;-57
2022/04/24 05:35:39;;;;;;;0.30;0.30;;;;;;;;;;1853298;76;26245;-53
2022/04/24 05:38:07;;;;;;;0.30;0.30;;;;;;;;;;1841678;76;26182;-60
2022/04/24 05:40:34;;;;;;;0.40;0.40;;;;;;;;;;1843580;76;26328;-50
2022/04/24 05:43:01;;;;;;;0.25;0.25;;;;;;;;;;1847387;76;26752;-58
2022/04/24 05:45:29;;;;;;;0.30;0.30;;;;;;;;;;1847102;76;26245;-51
2022/04/24 05:47:56;;;;;;;0.30;0.30;;;;;;;;;;1842806;76;26280;-52
2022/04/24 05:50:24;;;;;;;0.40;0.40;;;;;;;;;;1847145;76;26840;-54
2022/04/24 05:52:55;;;;;;;0.33;0.33;;;;;;;;;;1847425;76;26262;-55
2022/04/24 05:55:22;;;;;;;0.30;0.30;;;;;;;;;;1847339;76;26321;-54
2022/04/24 05:57:50;;;;;;;0.30;0.30;;;;;;;;;;1848100;76;27381;-52
2022/04/24 06:00:18;;;;;;;0.30;0.30;;;;;;;;;;1847191;76;26274;-52
2022/04/24 06:02:46;;;;;;;0.30;0.30;;;;;;;;;;1846130;76;26779;-54
2022/04/24 06:05:13;;;;;;;0.25;0.25;;;;;;;;;;1842690;76;26303;-51
2022/04/24 06:07:40;;;;;;;0.40;0.40;;;;;;;;;;1843576;76;26312;-47
2022/04/24 06:10:09;;;;;;;0.28;0.28;;;;;;;;;;1842274;76;26360;-55
2022/04/24 06:12:52;;;;;;;0.30;0.30;;;;;;;;;;1846983;76;26272;-50
2022/04/24 06:15:21;;;;;;;0.30;0.30;;;;;;;;;;1843267;76;26265;-49
2022/04/24 06:17:54;;;;;;;0.62;0.30;;;;;;;;;;1847033;76;26313;-52
2022/04/24 06:20:19;;;;;;;0.50;0.50;;;;;;;;;;1846061;76;26709;-55
2022/04/24 06:22:47;;;;;;;0.40;0.33;;;;;;;;;;1847105;76;26323;-52
2022/04/24 06:25:17;;;;;;;1.17;0.42;;;;;;;;;;1842154;76;26273;-58
2022/04/24 06:27:45;;;;;;;0.40;0.40;;;;;;;;;;1841595;76;26274;-49
2022/04/24 06:30:12;;;;;;;0.68;0.37;;;;;;;;;;1846396;76;26261;-55
2022/04/24 06:32:41;;;;;;;1.17;0.40;;;;;;;;;;1846939;76;26795;-49
2022/04/24 06:35:09;;;;;;;1.27;0.55;;;;;;;;;;1845123;76;26015;-57
2022/04/24 06:37:37;;;;;;;1.55;0.50;;;;;;;;;;1857120;75;26292;-56
2022/04/24 06:40:06;;;;;;;2.20;0.50;;;;;;;;;;1860644;76;26264;-51
2022/04/24 06:42:34;;;;;;;2.22;0.57;;;;;;;;;;1862704;75;26316;-47
2022/04/24 06:45:02;;;;;;;0.50;0.40;;;;;;;;;;1862375;75;26728;-57
2022/04/24 06:47:29;;;;;;;0.40;0.40;;;;;;;;;;1862698;76;26288;-52
2022/04/24 06:49:56;;;;;;;0.47;0.40;;;;;;;;;;1862469;76;26320;-58
2022/04/24 06:52:24;;;;;;;1.95;0.40;;;;;;;;;;1862748;77;26252;-52
2022/04/24 06:54:51;;;;;;;0.70;0.37;;;;;;;;;;1862944;75;26378;-53
2022/04/24 06:57:18;;;;;;;0.30;0.30;;;;;;;;;;1856057;75;26754;-52
2022/04/24 06:59:45;;;;;;;0.40;0.40;;;;;;;;;;1861820;77;26738;-54
2022/04/24 07:02:14;;;;;;;0.40;0.40;;;;;;;;;;1862262;77;26724;-53
2022/04/24 07:04:41;;;;;;;0.40;0.40;;;;;;;;;;1862978;77;26237;-50
2022/04/24 07:07:08;;;;;;;0.33;0.33;;;;;;;;;;1864193;77;26318;-50
2022/04/24 07:09:35;;;;;;;0.53;0.50;;;;;;;;;;1869811;75;26332;-48
2022/04/24 07:12:03;;;;;;;0.50;0.50;;;;;;;;;;1863258;77;26249;-50
2022/04/24 07:14:30;;;;;;;0.90;0.60;;;;;;;;;;1861441;75;26250;-49
2022/04/24 07:16:57;;;;;;;0.50;0.50;;;;;;;;;;1854816;77;26257;-57
2022/04/24 07:19:24;;;;;;;0.30;0.30;;;;;;;;;;1867985;75;26250;-50
2022/04/24 07:21:52;;;;;;;0.68;0.35;;;;;;;;;;1864619;75;26261;-49
2022/04/24 07:24:19;;;;;;;0.35;0.35;;;;;;;;;;1863152;77;26298;-59
2022/04/24 07:26:46;;;;;;;0.33;0.33;;;;;;;;;;1857526;77;26342;-57
2022/04/24 07:29:13;;;;;;;2.70;0.30;;;;;;;;;;1863704;76;26329;-56
2022/04/24 07:31:41;;;;;;;0.37;0.30;;;;;;;;;;1863990;75;26830;-54
2022/04/24 07:34:08;;;;;;;0.40;0.40;;;;;;;;;;1863855;77;26755;-58
2022/04/24 07:36:36;;;;;;;0.40;0.40;;;;;;;;;;1863659;77;26269;-55
2022/04/24 07:39:03;;;;;;;1.05;0.50;;;;;;;;;;1848758;77;26367;-51
2022/04/24 07:41:30;;;;;;;2.15;0.50;;;;;;;;;;1848711;77;26725;-57
2022/04/24 07:43:58;;;;;;;0.30;0.30;;;;;;;;;;1837222;76;26273;-53
2022/04/24 07:46:27;;;;;;;0.20;0.20;;;;;;;;;;1837940;76;26532;-56
2022/04/24 07:48:54;;;;;;;0.53;0.40;;;;;;;;;;1855308;77;26263;-55
2022/04/24 07:51:21;;;;;;;0.25;0.25;;;;;;;;;;1851131;77;26202;-55
2022/04/24 07:53:48;;;;;;;1.27;0.30;;;;;;;;;;1851535;76;26261;-60
2022/04/24 07:56:16;;;;;;;0.30;0.30;;;;;;;;;;1847820;77;26383;-54
2022/04/24 07:58:43;;;;;;;0.40;0.40;;;;;;;;;;1852630;76;26338;-61
2022/04/24 08:01:11;;;;;;;0.60;0.30;;;;;;;;;;1847096;77;26302;-61
2022/04/24 08:03:38;;;;;;;0.45;0.45;;;;;;;;;;1843142;76;26253;-57
2022/04/24 08:06:06;;;;;;;0.35;0.35;;;;;;;;;;1845763;76;26259;-60
2022/04/24 08:08:33;;;;;;;0.47;0.47;;;;;;;;;;1846512;77;26266;-60
2022/04/24 08:11:00;;;;;;;0.50;0.50;;;;;;;;;;1846342;77;26401;-60
2022/04/24 08:13:29;;;;;;;0.28;0.28;;;;;;;;;;1846391;77;26320;-60
2022/04/24 08:15:57;;;;;;;0.65;0.40;;;;;;;;;;1847824;76;26322;-59
2022/04/24 08:18:24;;;;;;;0.33;0.33;;;;;;;;;;1847260;77;25651;-61
2022/04/24 08:20:52;;;;;;;0.35;0.35;;;;;;;;;;1842298;77;26816;-55
2022/04/24 08:23:20;;;;;;;0.40;0.40;;;;;;;;;;1847447;77;26749;-59
2022/04/24 08:25:48;;;;;;;0.40;0.40;;;;;;;;;;1851341;76;26250;-59
2022/04/24 08:28:15;;;;;;;1.45;0.40;;;;;;;;;;1847439;77;26698;-61
2022/04/24 08:30:43;;;;;;;0.40;0.40;;;;;;;;;;1846851;76;26268;-59
2022/04/24 08:33:11;;;;;;;0.25;0.25;;;;;;;;;;1846770;77;26689;-60
2022/04/24 08:35:39;;;;;;;0.35;0.35;;;;;;;;;;1847196;77;26312;-54
2022/04/24 08:38:07;;;;;;;2.33;0.37;;;;;;;;;;1851279;76;26336;-61
2022/04/24 08:40:35;;;;;;;0.33;0.33;;;;;;;;;;1857334;76;26249;-55
2022/04/24 08:43:02;;;;;;;0.65;0.20;;;;;;;;;;1856469;77;26252;-58
2022/04/24 08:45:31;;;;;;;0.20;0.20;;;;;;;;;;1854810;77;26241;-58
2022/04/24 08:47:58;;;;;;;0.85;0.40;;;;;;;;;;1856184;77;26320;-58
2022/04/24 08:50:30;;;;;;;0.98;0.30;;;;;;;;;;1859043;76;26304;-57
2022/04/24 08:52:58;;;;;;;0.30;0.30;;;;;;;;;;1855625;76;26317;-61
2022/04/24 08:55:29;;;;;;;1.02;0.20;;;;;;;;;;1857661;76;26273;-61
2022/04/24 08:57:57;;;;;;;4.97;0.40;;;;;;;;;;1853190;77;26785;-59
2022/04/24 09:00:25;;;;;;;0.35;0.35;;;;;;;;;;1854863;76;26733;-58
2022/04/24 09:02:52;;;;;;;0.35;0.35;;;;;;;;;;1854367;77;26318;-58
2022/04/24 09:05:21;;;;;;;0.30;0.30;;;;;;;;;;1823394;78;26272;-56
2022/04/24 09:07:52;;;;;;;0.20;0.20;;;;;;;;;;1808805;79;26585;-56
2022/04/24 09:10:17;;;;;;;0.33;0.33;;;;;;;;;;1807469;78;26795;-54
2022/04/24 09:12:45;;;;;;;0.20;0.20;;;;;;;;;;1806421;78;26942;-51
2022/04/24 09:15:14;;;;;;;0.30;0.30;;;;;;;;;;1803875;78;26313;-58
2022/04/24 09:17:41;;;;;;;0.30;0.30;;;;;;;;;;1804448;79;26275;-58
2022/04/24 09:20:19;;;;;;;1.80;0.40;;;;;;;;;;1806676;79;26274;-60
2022/04/24 09:22:47;;;;;;;0.30;0.30;;;;;;;;;;1802902;79;27254;-55
2022/04/24 09:25:15;;;;;;;0.20;0.20;;;;;;;;;;1806213;78;27236;-58
2022/04/24 09:27:42;;;;;;;0.60;0.40;;;;;;;;;;1801548;78;26743;-55
2022/04/24 09:30:13;;;;;;;0.40;0.40;;;;;;;;;;1806025;79;26263;-56
2022/04/24 09:32:49;;;;;;;0.40;0.30;;;;;;;;;;1805677;79;26384;-59
2022/04/24 09:35:24;;;;;;;0.40;0.40;;;;;;;;;;1807655;78;26275;-60
2022/04/24 09:37:52;;;;;;;0.30;0.30;;;;;;;;;;1793233;77;26311;-58
2022/04/24 09:40:19;;;;;;;0.30;0.30;;;;;;;;;;1799124;78;26283;-56
2022/04/24 09:42:56;;;;;;;0.30;0.30;;;;;;;;;;1800018;79;27007;-61
2022/04/24 09:45:25;;;;;;;0.20;0.20;;;;;;;;;;1799792;79;26307;-56
2022/04/24 09:47:59;;;;;;;0.30;0.30;;;;;;;;;;1846445;77;26264;-54
2022/04/24 09:50:30;;;;;;;0.25;0.25;;;;;;;;;;1846444;77;26777;-60
2022/04/24 09:52:58;;;;;;;0.30;0.30;;;;;;;;;;1846212;77;26335;-56
2022/04/24 09:55:28;;;;;;;0.20;0.20;;;;;;;;;;1844940;77;26641;-61
2022/04/24 09:57:56;;;;;;;0.42;0.42;;;;;;;;;;1846856;76;26269;-60
2022/04/24 10:00:24;;;;;;;0.30;0.30;;;;;;;;;;1846676;76;27046;-58
2022/04/24 10:02:53;;;;;;;0.30;0.30;;;;;;;;;;1847953;77;26725;-56
2022/04/24 10:05:21;;;;;;;0.40;0.40;;;;;;;;;;1846244;77;26371;-58
2022/04/24 10:07:49;;;;;;;0.50;0.50;;;;;;;;;;1845284;77;26297;-61
2022/04/24 10:10:17;;;;;;;0.57;0.40;;;;;;;;;;1843262;77;26293;-57
2022/04/24 10:12:48;;;;;;;1.72;0.50;;;;;;;;;;1846348;77;26339;-57
2022/04/24 10:15:16;;;;;;;1.65;0.42;;;;;;;;;;1842146;76;26347;-59
2022/04/24 10:17:50;;;;;;;0.42;0.40;;;;;;;;;;1845750;77;26329;-59
2022/04/24 10:20:28;;;;;;;0.88;0.57;;;;;;;;;;1844543;76;27303;-57
2022/04/24 10:22:56;;;;;;;0.62;0.47;;;;;;;;;;1845609;77;26717;-57
2022/04/24 10:25:31;;;;;;;0.62;0.57;;;;;;;;;;1846418;77;26309;-55
2022/04/24 10:28:00;;;;;;;3.17;0.50;;;;;;;;;;1841027;77;26804;-58
2022/04/24 10:30:27;;;;;;;1.27;0.53;;;;;;;;;;1843258;76;26352;-58
2022/04/24 10:33:14;;;;;;;0.68;0.45;;;;;;;;;;1849113;76;26265;-57
2022/04/24 10:35:48;;;;;;;1.30;0.50;;;;;;;;;;1844528;76;26754;-57
2022/04/24 10:38:17;;;;;;;1.10;0.40;;;;;;;;;;1843722;76;26788;-57
2022/04/24 10:40:46;;;;;;;1.75;0.70;;;;;;;;;;1848070;76;26800;-57
2022/04/24 10:43:16;;;;;;;0.95;0.50;;;;;;;;;;1849169;76;26764;-60
2022/04/24 10:45:50;;;;;;;0.50;0.50;;;;;;;;;;1843492;76;26311;-58
2022/04/24 10:48:17;;;;;;;3.92;0.65;;;;;;;;;;1825864;78;26303;-60
2022/04/24 10:50:49;;;;;;;3.80;0.80;;;;;;;;;;1825806;78;26337;-56
2022/04/24 10:53:16;;;;;;;2.42;0.55;;;;;;;;;;1836228;76;26262;-57
2022/04/24 10:55:44;;;;;;;0.60;0.60;;;;;;;;;;1886485;76;26325;-57
2022/04/24 10:58:12;;;;;;;0.40;0.40;;;;;;;;;;1852463;76;26709;-58
2022/04/24 11:00:39;;;;;;;2.33;0.60;;;;;;;;;;1856691;77;26265;-58
2022/04/24 11:03:14;;;;;;;0.70;0.70;;;;;;;;;;1856778;77;26265;-57
2022/04/24 11:05:42;;;;;;;0.57;0.50;;;;;;;;;;1856718;77;26354;-57
2022/04/24 11:08:10;;;;;;;0.62;0.60;;;;;;;;;;1856683;77;26316;-58
2022/04/24 11:10:39;;;;;;;1.07;0.98;;;;;;;;;;1856569;77;26729;-59
2022/04/24 11:13:08;;;;;;;1.20;0.70;;;;;;;;;;1849158;77;26335;-55
2022/04/24 11:15:37;;;;;;;1.00;0.53;;;;;;;;;;1841777;76;26744;-56
2022/04/24 11:18:05;;;;;;;0.50;0.50;;;;;;;;;;1847588;76;26815;-57
2022/04/24 11:20:33;;;;;;;0.50;0.50;;;;;;;;;;1857082;77;26704;-54
2022/04/24 11:23:00;;;;;;;0.62;0.62;;;;;;;;;;1856516;76;26304;-60
2022/04/24 11:25:28;;;;;;;0.50;0.50;;;;;;;;;;1855967;77;26351;-59
2022/04/24 11:27:57;;;;;;;0.90;0.57;;;;;;;;;;1852581;77;26284;-57
2022/04/24 11:30:33;;;;;;;0.57;0.57;;;;;;;;;;1855176;76;26775;-60
2022/04/24 11:33:07;;;;;;;0.62;0.62;;;;;;;;;;1855205;76;26333;-59
2022/04/24 11:35:37;;;;;;;0.95;0.65;;;;;;;;;;1853910;76;26388;-57
2022/04/24 11:38:06;;;;;;;0.60;0.60;;;;;;;;;;1856052;76;26631;-59
2022/04/24 11:40:38;;;;;;;0.65;0.65;;;;;;;;;;1848695;76;27212;-58
2022/04/24 11:43:03;;;;;;;0.60;0.60;;;;;;;;;;1848919;76;26325;-59
2022/04/24 11:51:19;;;;;;;0.65;0.65;;;;;;;;;;1833056;77;26350;-59
2022/04/24 11:53:47;;;;;;;0.60;0.60;;;;;;;;;;1844852;76;26741;-57
2022/04/24 11:56:16;;;;;;;0.60;0.60;;;;;;;;;;1842773;77;26277;-58
2022/04/24 11:58:46;;;;;;;0.70;0.70;;;;;;;;;;1840359;77;26323;-56
2022/04/24 12:01:14;;;;;;;0.70;0.70;;;;;;;;;;1831663;77;26819;-58
2022/04/24 12:03:46;;;;;;;0.80;0.80;;;;;;;;;;1840601;76;26254;-56
2022/04/24 12:06:14;;;;;;;0.70;0.70;;;;;;;;;;1848150;77;26709;-61
2022/04/24 12:08:48;;;;;;;0.85;0.85;;;;;;;;;;1822021;77;26274;-56
2022/04/24 12:11:13;;;;;;;0.80;0.80;;;;;;;;;;1842092;76;26358;-58
2022/04/24 12:13:40;;;;;;;0.70;0.70;;;;;;;;;;1842022;76;26265;-57
2022/04/24 12:16:07;;;;;;;0.90;0.90;;;;;;;;;;1851496;76;26756;-57
2022/04/24 12:18:35;;;;;;;0.80;0.80;;;;;;;;;;1844724;76;26840;-54
2022/04/24 12:21:02;;;;;;;0.85;0.78;;;;;;;;;;1847837;77;26710;-59
2022/04/24 12:23:31;;;;;;;0.70;0.70;;;;;;;;;;1847718;77;26344;-54
2022/04/24 12:26:02;;;;;;;0.70;0.70;;;;;;;;;;1838574;76;26673;-59
2022/04/24 12:28:31;;;;;;;0.80;0.80;;;;;;;;;;1840998;77;26349;-60
2022/04/24 12:31:01;;;;;;;0.80;0.80;;;;;;;;;;1847143;76;26690;-61
2022/04/24 12:33:29;;;;;;;1.20;1.20;;;;;;;;;;1839999;76;26685;-55
2022/04/24 12:36:12;;;;;;;0.80;0.80;;;;;;;;;;1847153;76;26312;-60
2022/04/24 12:38:38;;;;;;;0.80;0.80;;;;;;;;;;1842185;77;26287;-61
2022/04/24 12:41:07;;;;;;;0.80;0.80;;;;;;;;;;1839889;76;26303;-60
2022/04/24 12:43:35;;;;;;;0.78;0.78;;;;;;;;;;1845385;77;26297;-61
2022/04/24 12:46:02;;;;;;;0.88;0.88;;;;;;;;;;1842254;76;26900;-60
2022/04/24 12:48:30;;;;;;;0.85;0.85;;;;;;;;;;1849926;76;26269;-59
2022/04/24 12:50:59;;;;;;;0.80;0.80;;;;;;;;;;1844506;76;26751;-61
2022/04/24 12:53:26;;;;;;;0.82;0.82;;;;;;;;;;1838371;77;26274;-58
2022/04/24 12:55:53;;;;;;;0.80;0.80;;;;;;;;;;1839208;77;26331;-62
2022/04/24 12:58:21;;;;;;;0.80;0.80;;;;;;;;;;1842352;76;26253;-60
2022/04/24 13:00:48;;;;;;;0.90;0.90;;;;;;;;;;1838670;77;27652;-55
2022/04/24 13:03:16;;;;;;;0.90;0.90;;;;;;;;;;1841193;77;26305;-57
2022/04/24 13:05:44;;;;;;;0.90;0.90;;;;;;;;;;1847017;77;26269;-60
2022/04/24 13:08:12;;;;;;;1.00;1.00;;;;;;;;;;1848381;77;26226;-59
2022/04/24 13:10:39;;;;;;;0.82;0.82;;;;;;;;;;1856642;76;26722;-58
2022/04/24 13:13:07;;;;;;;0.90;0.90;;;;;;;;;;1837500;77;26967;-55
2022/04/24 13:15:35;;;;;;;0.80;0.80;;;;;;;;;;1840293;77;26278;-57
2022/04/24 13:18:07;;;;;;;1.00;1.00;;;;;;;;;;1848262;77;26323;-50
2022/04/24 13:20:36;;;;;;;0.90;0.90;;;;;;;;;;1847772;77;26351;-54
2022/04/24 13:23:04;;;;;;;1.00;1.00;;;;;;;;;;1843144;76;26355;-54
2022/04/24 13:25:32;;;;;;;1.02;1.00;;;;;;;;;;1839749;76;27237;-56
2022/04/24 13:27:59;;;;;;;1.12;0.90;;;;;;;;;;1844397;76;26277;-52
2022/04/24 13:30:26;;;;;;;1.00;1.00;;;;;;;;;;1842065;76;26398;-54
2022/04/24 13:32:54;;;;;;;1.10;1.10;;;;;;;;;;1845575;76;26366;-55
2022/04/24 13:35:21;;;;;;;0.98;0.98;;;;;;;;;;1845619;77;26598;-52
2022/04/24 13:40:34;;;;;;;0.93;0.93;;;;;;;;;;1850682;77;26361;-58
2022/04/24 13:43:02;;;;;;;1.10;1.10;;;;;;;;;;1856125;77;27504;-60
2022/04/24 13:45:31;;;;;;;1.60;1.07;;;;;;;;;;1848055;76;26293;-69
2022/04/24 13:47:59;;;;;;;1.62;1.10;;;;;;;;;;1856107;77;26254;-61
2022/04/24 13:50:27;;;;;;;1.02;1.02;;;;;;;;;;1848788;76;26328;-63
2022/04/24 13:52:54;;;;;;;1.20;1.20;;;;;;;;;;1853539;77;26359;-61
2022/04/24 13:55:21;;;;;;;0.90;0.90;;;;;;;;;;1859299;76;26258;-62
2022/04/24 13:57:49;;;;;;;0.82;0.82;;;;;;;;;;1855009;77;26261;-55
2022/04/24 14:00:17;;;;;;;0.95;0.95;;;;;;;;;;1855405;77;26331;-61
2022/04/24 14:02:45;;;;;;;0.93;0.93;;;;;;;;;;1844399;77;26558;-61
2022/04/24 14:05:13;;;;;;;0.90;0.90;;;;;;;;;;1850699;76;26844;-55
2022/04/24 14:07:41;;;;;;;1.00;1.00;;;;;;;;;;1858045;76;26268;-53
2022/04/24 14:10:09;;;;;;;0.90;0.90;;;;;;;;;;1855145;76;26867;-54
2022/04/24 14:12:36;;;;;;;1.10;1.10;;;;;;;;;;1851652;77;26840;-55
2022/04/24 14:15:05;;;;;;;1.00;1.00;;;;;;;;;;1852425;77;26265;-51
2022/04/24 14:17:32;;;;;;;1.10;1.10;;;;;;;;;;1852592;76;26768;-57
2022/04/24 14:20:00;;;;;;;1.20;1.20;;;;;;;;;;1842681;77;26877;-54
2022/04/24 14:22:27;;;;;;;1.20;1.20;;;;;;;;;;1849039;77;26915;-54
2022/04/24 14:24:54;;;;;;;1.17;1.15;;;;;;;;;;1852838;77;26815;-55
2022/04/24 14:27:21;;;;;;;2.20;1.22;;;;;;;;;;1855072;76;26327;-52
2022/04/24 14:29:49;;;;;;;4.80;1.10;;;;;;;;;;1866526;76;26261;-55
2022/04/24 14:32:16;;;;;;;0.85;0.85;;;;;;;;;;1855565;77;26307;-53
2022/04/24 14:34:44;;;;;;;1.22;1.12;;;;;;;;;;1839251;76;26815;-54
2022/04/24 14:37:12;;;;;;;1.50;1.10;;;;;;;;;;1855012;77;26370;-61
2022/04/24 14:39:40;;;;;;;1.65;0.93;;;;;;;;;;1857950;76;26612;-63
2022/04/24 14:42:07;;;;;;;1.07;1.00;;;;;;;;;;1847738;76;26265;-60
2022/04/24 14:44:35;;;;;;;1.10;1.10;;;;;;;;;;1846768;77;26261;-55
2022/04/24 14:58:07;;;;;;;1.15;0.90;;;;;;;;;;1843343;77;26740;-57
2022/04/24 15:00:35;;;;;;;1.00;1.00;;;;;;;;;;1849485;76;26270;-54
2022/04/24 15:03:06;;;;;;;0.93;0.93;;;;;;;;;;1854097;76;26266;-55
2022/04/24 15:05:35;;;;;;;0.90;0.90;;;;;;;;;;1847185;76;26273;-57
2022/04/24 15:08:02;;;;;;;0.90;0.90;;;;;;;;;;1847000;77;26262;-54